Crowley, Louisiana
Current Conditions -  °F | °C
As of 9:35 AM on Friday 19 Dec 2014 (Local Time) from K3R7 Reporting Station
Overcast Overcast  
Wind Chill: 56°   Ceiling: 300
Heat Index: 56°   Visibility: 10mi
Dew Point: 55°   Wind: 8mph
Humidity: 98%   Direction: 360°N
Pressure: 30.1"   Gusts: NA
Location:  30.21°N, 92.37°W
Report Text: K3R7 191535Z AUTO 36007KT 10SM OVC003 13/13 A3010 RMK AO2 T01310128
Loading
Personal Weather Stations






























Interactive Weather Map New forecast layout! Learn more

10-Day Weather Forecast

Advertisements
Track Severe Weather on mobile